Time;durP1;ratioP1;P1;durP2;ratioP2;P2;SDS_P1;SDS_P2;PMS_P1;PMS_P2;Temp;Humidity;BMP_temperature;BMP_pressure;BME280_temperature;BME280_humidity;BME280_pressure;Samples;Min_cycle;Max_cycle;Signal;HPM_P1;HPM_P2
2021/05/04 00:01:06;;;;;;;3.40;2.27;;;11.90;39.80;;;;;;5052307;28;20178;-72
2021/05/04 00:03:32;;;;;;;2.83;2.43;;;11.90;39.80;;;;;;5052495;28;20213;-74
2021/05/04 00:05:58;;;;;;;2.90;2.40;;;11.90;39.90;;;;;;5049945;28;20189;-73
2021/05/04 00:08:24;;;;;;;5.23;2.20;;;11.90;40.00;;;;;;5052580;28;20928;-75
2021/05/04 00:10:50;;;;;;;4.10;2.50;;;11.90;40.00;;;;;;5052058;28;20265;-73
2021/05/04 00:13:16;;;;;;;3.03;2.50;;;11.90;40.00;;;;;;5052210;28;20162;-73
2021/05/04 00:15:41;;;;;;;5.73;2.60;;;11.90;40.00;;;;;;5050604;28;20181;-74
2021/05/04 00:18:07;;;;;;;2.70;2.10;;;11.90;40.00;;;;;;5050498;28;20527;-73
2021/05/04 00:20:33;;;;;;;3.83;2.43;;;11.90;40.00;;;;;;5050353;28;20201;-73
2021/05/04 00:22:59;;;;;;;3.30;2.33;;;11.90;40.10;;;;;;5050049;28;20185;-73
2021/05/04 00:25:25;;;;;;;4.83;2.57;;;11.90;40.10;;;;;;5048692;28;20447;-75
2021/05/04 00:27:51;;;;;;;3.80;2.40;;;11.90;40.20;;;;;;5050721;28;20496;-72
2021/05/04 00:30:17;;;;;;;3.20;2.27;;;11.90;40.20;;;;;;5050581;28;20200;-73
2021/05/04 00:32:43;;;;;;;3.67;2.00;;;11.90;40.20;;;;;;5050402;28;20177;-74
2021/05/04 00:35:09;;;;;;;3.40;2.73;;;12.00;40.30;;;;;;5049895;28;20216;-73
2021/05/04 00:37:35;;;;;;;4.63;2.37;;;12.00;40.30;;;;;;5049238;28;20590;-73
2021/05/04 00:40:00;;;;;;;2.27;2.07;;;12.00;40.30;;;;;;5051316;28;20411;-73
2021/05/04 00:42:26;;;;;;;4.17;2.30;;;12.00;40.20;;;;;;5049312;28;20260;-74
2021/05/04 00:44:52;;;;;;;3.83;2.50;;;12.10;40.00;;;;;;5049718;28;20223;-75
2021/05/04 00:47:18;;;;;;;3.23;2.50;;;12.10;39.70;;;;;;5050713;28;20629;-74
2021/05/04 01:20:08;;;;;;;4.53;1.70;;;12.70;37.80;;;;;;5066198;28;20418;-72
2021/05/04 01:22:34;;;;;;;4.97;2.17;;;12.70;37.80;;;;;;5074587;28;20498;-73
2021/05/04 01:25:00;;;;;;;3.50;2.03;;;12.70;37.80;;;;;;5072530;28;20523;-74
2021/05/04 01:27:26;;;;;;;2.20;1.87;;;12.70;37.90;;;;;;5079487;28;20420;-73
2021/05/04 01:29:52;;;;;;;7.03;2.30;;;12.80;37.90;;;;;;5054819;28;20422;-74
2021/05/04 01:32:18;;;;;;;5.23;2.20;;;12.70;37.90;;;;;;5053175;28;20817;-75
2021/05/04 01:34:44;;;;;;;2.20;1.70;;;12.70;38.00;;;;;;5053446;28;20196;-74
2021/05/04 01:37:10;;;;;;;2.90;2.70;;;12.70;38.10;;;;;;5053705;28;20158;-72
2021/05/04 01:39:44;;;;;;;3.30;2.00;;;12.70;38.10;;;;;;5053334;28;20916;-73
2021/05/04 01:42:11;;;;;;;4.73;1.70;;;12.70;38.20;;;;;;5051410;28;20173;-73
2021/05/04 01:44:37;;;;;;;3.30;2.00;;;12.70;38.30;;;;;;5053729;28;20570;-71
2021/05/04 01:47:04;;;;;;;5.10;2.10;;;12.70;38.30;;;;;;5052896;28;20547;-74
2021/05/04 01:49:30;;;;;;;2.13;1.77;;;12.70;38.40;;;;;;5052565;28;20404;-74
2021/05/04 01:51:56;;;;;;;3.70;2.20;;;12.70;38.40;;;;;;5052198;28;20482;-74
2021/05/04 01:54:23;;;;;;;5.73;2.10;;;12.70;38.40;;;;;;5053580;28;20162;-73
2021/05/04 01:56:50;;;;;;;3.07;1.57;;;12.70;38.50;;;;;;5051915;28;20505;-72
2021/05/04 01:59:16;;;;;;;2.30;1.73;;;12.60;38.50;;;;;;5054086;28;20748;-74
2021/05/04 02:01:42;;;;;;;2.33;1.80;;;12.70;39.10;;;;;;5053370;28;20422;-75
2021/05/04 02:04:08;;;;;;;3.77;1.63;;;12.70;38.60;;;;;;5056755;28;20451;-73
2021/05/04 02:06:34;;;;;;;1.83;1.50;;;12.70;38.60;;;;;;5056676;28;20459;-72
2021/05/04 02:09:00;;;;;;;2.97;1.83;;;12.70;38.50;;;;;;5060672;28;20166;-73
2021/05/04 02:11:29;;;;;;;1.87;1.53;;;12.70;38.30;;;;;;5059115;28;20165;-74
2021/05/04 02:13:54;;;;;;;2.33;1.73;;;12.70;38.20;;;;;;5038872;28;20182;-73
2021/05/04 02:16:20;;;;;;;3.27;1.40;;;12.70;38.00;;;;;;5052557;28;20497;-74
2021/05/04 02:18:46;;;;;;;2.37;1.20;;;12.80;37.70;;;;;;5054685;28;20178;-74
2021/05/04 02:21:12;;;;;;;1.93;1.37;;;12.80;36.70;;;;;;5055024;28;20227;-74
2021/05/04 02:23:38;;;;;;;2.33;1.67;;;12.90;36.70;;;;;;5054157;28;20570;-74
2021/05/04 02:26:03;;;;;;;5.03;2.03;;;13.00;36.60;;;;;;5050291;28;20205;-73
2021/05/04 02:28:30;;;;;;;2.10;1.50;;;13.00;36.70;;;;;;5053717;28;20494;-74
2021/05/04 02:30:55;;;;;;;8.20;1.50;;;13.00;36.50;;;;;;5055150;28;20162;-74
2021/05/04 02:33:21;;;;;;;8.30;1.63;;;13.00;36.70;;;;;;5054022;28;20407;-75
2021/05/04 02:35:46;;;;;;;4.67;1.70;;;13.00;36.70;;;;;;5053897;28;20665;-75
2021/05/04 02:38:12;;;;;;;5.03;1.40;;;13.00;37.20;;;;;;5051727;28;20295;-74
2021/05/04 02:40:38;;;;;;;5.53;1.63;;;12.90;39.10;;;;;;5050425;28;20714;-74
2021/05/04 02:43:04;;;;;;;4.90;1.77;;;12.80;40.10;;;;;;5053209;28;20170;-74
2021/05/04 02:45:30;;;;;;;2.50;1.73;;;12.70;41.60;;;;;;5053495;28;20563;-73
2021/05/04 02:47:55;;;;;;;1.93;1.37;;;12.50;43.80;;;;;;5053675;28;20404;-75
2021/05/04 02:50:27;;;;;;;5.80;1.37;;;12.30;46.30;;;;;;5052844;28;20161;-75
2021/05/04 02:52:53;;;;;;;3.03;1.50;;;12.00;47.40;;;;;;5051594;28;20233;-75
2021/05/04 02:55:18;;;;;;;2.53;1.67;;;11.80;49.50;;;;;;5053001;28;20949;-73
2021/05/04 02:57:44;;;;;;;4.20;1.30;;;11.60;49.70;;;;;;5050660;28;20260;-73
2021/05/04 03:00:10;;;;;;;3.70;1.20;;;11.40;50.60;;;;;;5051553;28;20174;-74
2021/05/04 03:02:36;;;;;;;3.23;1.43;;;11.30;51.60;;;;;;5066916;28;20188;-73
2021/05/04 03:05:02;;;;;;;5.47;1.67;;;11.20;52.00;;;;;;5052269;28;20463;-74
2021/05/04 03:07:28;;;;;;;3.33;1.50;;;11.10;52.60;;;;;;5051803;28;20194;-73
2021/05/04 03:09:53;;;;;;;3.43;1.70;;;11.00;53.00;;;;;;5051832;28;20508;-71
2021/05/04 03:12:19;;;;;;;7.37;1.67;;;11.00;53.50;;;;;;5051249;28;20193;-73
2021/05/04 03:14:45;;;;;;;2.20;1.47;;;10.90;54.30;;;;;;5049988;28;20208;-72
2021/05/04 03:17:10;;;;;;;2.17;1.50;;;10.80;54.90;;;;;;5050343;28;20193;-73
2021/05/04 03:19:36;;;;;;;2.60;1.30;;;10.70;55.10;;;;;;5049566;28;20166;-72
2021/05/04 03:22:02;;;;;;;3.33;1.53;;;10.70;56.00;;;;;;5048846;28;20196;-74
2021/05/04 03:24:27;;;;;;;3.40;1.53;;;10.60;56.20;;;;;;5051462;28;20193;-73
2021/05/04 03:26:53;;;;;;;2.87;1.23;;;10.50;56.80;;;;;;5048838;28;20190;-73
2021/05/04 03:29:19;;;;;;;2.53;1.87;;;10.40;57.00;;;;;;5051258;28;20431;-73
2021/05/04 03:31:44;;;;;;;2.20;1.20;;;10.30;57.80;;;;;;5050526;28;20296;-73
2021/05/04 03:34:10;;;;;;;1.80;1.33;;;10.20;57.50;;;;;;5049526;28;20181;-74
2021/05/04 03:36:35;;;;;;;4.00;1.53;;;10.20;57.80;;;;;;5050855;28;20243;-73
2021/05/04 03:39:02;;;;;;;1.97;1.20;;;10.10;57.80;;;;;;5053685;28;20177;-73
2021/05/04 03:41:27;;;;;;;2.80;1.37;;;10.10;57.50;;;;;;5053731;28;20166;-74
2021/05/04 03:43:53;;;;;;;2.40;2.20;;;10.10;57.30;;;;;;5049339;28;20486;-73
2021/05/04 03:46:19;;;;;;;1.90;1.60;;;10.00;57.50;;;;;;5051341;28;20185;-73
2021/05/04 03:48:45;;;;;;;3.10;1.63;;;10.00;57.30;;;;;;5053678;28;20197;-73
2021/05/04 03:51:11;;;;;;;2.37;1.70;;;10.00;57.20;;;;;;5054158;28;20161;-72
2021/05/04 03:53:38;;;;;;;1.20;0.90;;;10.00;57.20;;;;;;5050187;28;20422;-72
2021/05/04 03:56:05;;;;;;;2.27;1.53;;;10.00;56.70;;;;;;5049769;28;20185;-72
2021/05/04 03:58:31;;;;;;;2.50;1.60;;;10.00;56.50;;;;;;5052036;28;21052;-76
2021/05/04 04:00:57;;;;;;;1.70;1.30;;;10.00;56.40;;;;;;5067461;28;20420;-74
2021/05/04 04:03:23;;;;;;;3.80;1.60;;;10.00;56.40;;;;;;5050622;28;20431;-74
2021/05/04 04:05:48;;;;;;;1.83;1.17;;;10.00;56.50;;;;;;5050065;28;20197;-73
2021/05/04 04:08:14;;;;;;;1.50;0.90;;;10.00;55.80;;;;;;5050294;28;20170;-74
2021/05/04 04:10:41;;;;;;;2.00;1.37;;;10.00;55.70;;;;;;5050460;28;20231;-72
2021/05/04 04:13:07;;;;;;;3.00;1.53;;;10.00;55.50;;;;;;5049628;28;20182;-72
2021/05/04 04:15:33;;;;;;;4.10;1.53;;;10.00;55.50;;;;;;5049840;28;20432;-74
2021/05/04 04:17:58;;;;;;;2.27;1.47;;;10.00;55.20;;;;;;5065739;28;20213;-73
2021/05/04 04:20:24;;;;;;;2.60;1.03;;;10.00;54.80;;;;;;5050881;28;20249;-72
2021/05/04 04:22:50;;;;;;;1.83;1.23;;;9.90;55.50;;;;;;5051283;28;20166;-73
2021/05/04 04:25:16;;;;;;;3.77;1.40;;;9.90;54.70;;;;;;5050418;28;20198;-72
2021/05/04 04:27:41;;;;;;;4.33;1.57;;;9.90;55.10;;;;;;5050182;28;20174;-73
2021/05/04 04:30:07;;;;;;;1.77;1.03;;;9.90;55.40;;;;;;5050056;28;20592;-74
2021/05/04 04:32:34;;;;;;;2.50;1.10;;;9.90;55.10;;;;;;5048634;28;20167;-74
2021/05/04 04:34:59;;;;;;;1.33;0.90;;;9.90;55.30;;;;;;5049915;28;20424;-73
2021/05/04 04:37:25;;;;;;;1.83;1.40;;;9.90;55.10;;;;;;5057871;28;20935;-74
2021/05/04 04:39:51;;;;;;;4.83;1.40;;;9.90;55.50;;;;;;5054816;28;20158;-74
2021/05/04 04:42:17;;;;;;;2.67;1.43;;;9.90;55.40;;;;;;5053749;28;20249;-74
2021/05/04 04:44:43;;;;;;;2.37;1.90;;;9.90;55.70;;;;;;5053834;28;20197;-73
2021/05/04 04:47:11;;;;;;;2.10;1.13;;;9.90;55.50;;;;;;5054306;28;20170;-75
2021/05/04 04:49:36;;;;;;;2.00;1.40;;;9.90;55.60;;;;;;5054360;28;20173;-74
2021/05/04 04:52:03;;;;;;;1.60;1.30;;;9.90;55.90;;;;;;5052522;28;20423;-74
2021/05/04 04:54:28;;;;;;;3.97;1.30;;;9.90;55.80;;;;;;5054503;28;20162;-74
2021/05/04 04:56:54;;;;;;;1.77;1.10;;;9.90;55.80;;;;;;5054111;28;20838;-73
2021/05/04 04:59:20;;;;;;;3.13;1.30;;;9.90;55.80;;;;;;5054700;28;20220;-74
2021/05/04 05:01:46;;;;;;;3.03;1.07;;;9.90;55.90;;;;;;5052449;28;20771;-74
2021/05/04 05:04:12;;;;;;;3.37;1.30;;;9.90;56.10;;;;;;5052789;28;20504;-74
2021/05/04 05:06:38;;;;;;;1.33;1.00;;;9.90;56.10;;;;;;5035541;28;20186;-75
2021/05/04 05:09:08;;;;;;;1.83;1.20;;;9.90;55.90;;;;;;5052550;28;20459;-74
2021/05/04 05:11:34;;;;;;;1.67;1.17;;;9.90;56.30;;;;;;5069315;28;20176;-74
2021/05/04 05:14:01;;;;;;;1.63;1.00;;;9.80;55.90;;;;;;5054020;28;20840;-73
2021/05/04 05:16:26;;;;;;;1.83;1.27;;;9.90;56.20;;;;;;5053833;28;20801;-73
2021/05/04 05:18:52;;;;;;;3.57;1.60;;;9.90;56.00;;;;;;5054936;28;20411;-75
2021/05/04 05:21:18;;;;;;;2.27;1.30;;;9.90;56.40;;;;;;5054422;28;20408;-75
2021/05/04 05:23:44;;;;;;;2.57;1.67;;;9.90;56.30;;;;;;5052466;28;20223;-74
2021/05/04 05:26:11;;;;;;;2.60;1.07;;;9.80;56.40;;;;;;5054553;28;20427;-74
2021/05/04 05:28:40;;;;;;;1.20;0.93;;;9.80;56.40;;;;;;5061053;28;20400;-72
2021/05/04 05:31:06;;;;;;;3.20;1.07;;;9.90;56.70;;;;;;5070987;28;20458;-75
2021/05/04 05:33:32;;;;;;;1.40;1.00;;;9.90;56.60;;;;;;5065530;28;20431;-73
2021/05/04 05:35:58;;;;;;;2.93;1.20;;;10.00;55.90;;;;;;5056457;28;20432;-74
2021/05/04 05:38:23;;;;;;;2.80;1.07;;;10.00;55.90;;;;;;5056469;28;20404;-75
2021/05/04 05:40:49;;;;;;;3.20;1.50;;;10.00;55.70;;;;;;5057679;28;20249;-73
2021/05/04 05:43:15;;;;;;;6.50;1.30;;;10.00;56.10;;;;;;5072382;28;20162;-72
2021/05/04 05:45:41;;;;;;;4.37;1.30;;;10.00;56.10;;;;;;5074008;28;20212;-72
2021/05/04 05:48:07;;;;;;;1.77;1.17;;;10.00;56.00;;;;;;5070069;28;20196;-73
2021/05/04 05:50:32;;;;;;;5.00;1.27;;;10.00;56.20;;;;;;5077419;28;20415;-72
2021/05/04 05:52:58;;;;;;;1.90;1.50;;;10.00;56.40;;;;;;5074141;28;20239;-73
2021/05/04 05:55:24;;;;;;;2.00;1.57;;;10.00;56.40;;;;;;5065901;28;20199;-72
2021/05/04 05:57:50;;;;;;;4.10;1.47;;;10.10;56.50;;;;;;5072628;28;20423;-74
2021/05/04 06:00:18;;;;;;;3.87;1.93;;;10.10;56.50;;;;;;5073716;28;20204;-73
2021/05/04 06:02:45;;;;;;;5.90;1.47;;;10.10;56.60;;;;;;5072361;28;20184;-74
2021/05/04 06:05:13;;;;;;;1.70;1.43;;;10.10;56.60;;;;;;5072159;28;20534;-73
2021/05/04 06:07:39;;;;;;;2.33;0.93;;;10.10;56.80;;;;;;5072705;28;20411;-73
2021/05/04 06:10:05;;;;;;;3.33;1.13;;;10.10;56.90;;;;;;5055746;28;20413;-72
2021/05/04 06:12:30;;;;;;;3.17;1.47;;;10.10;57.20;;;;;;5052711;28;20515;-71
2021/05/04 06:14:56;;;;;;;5.60;1.10;;;10.10;57.00;;;;;;5052193;28;20526;-72
2021/05/04 06:17:22;;;;;;;1.90;1.50;;;10.20;56.80;;;;;;5053965;28;20173;-73
2021/05/04 06:19:48;;;;;;;4.07;1.97;;;10.30;56.80;;;;;;5068426;28;20576;-73
2021/05/04 06:22:13;;;;;;;2.97;0.93;;;10.30;56.80;;;;;;5052372;28;20424;-74
2021/05/04 06:24:39;;;;;;;4.90;2.43;;;10.30;56.50;;;;;;5050978;28;20228;-72
2021/05/04 06:27:05;;;;;;;3.00;1.00;;;10.30;56.50;;;;;;5067989;28;20178;-72
2021/05/04 06:29:31;;;;;;;4.30;1.67;;;10.30;56.60;;;;;;5051880;28;20519;-72
2021/05/04 06:32:02;;;;;;;1.93;1.30;;;10.30;56.50;;;;;;5068400;28;20762;-73
2021/05/04 06:34:28;;;;;;;2.13;1.30;;;10.30;56.60;;;;;;5071348;28;20557;-73
2021/05/04 06:36:54;;;;;;;4.53;1.80;;;10.30;56.50;;;;;;5060915;28;20535;-72
2021/05/04 06:39:22;;;;;;;2.03;1.13;;;10.30;56.70;;;;;;5041410;28;20181;-73
2021/05/04 06:41:48;;;;;;;4.70;1.47;;;10.30;56.70;;;;;;5065993;28;20181;-72
2021/05/04 06:44:14;;;;;;;3.60;1.07;;;10.40;57.20;;;;;;5050033;28;20459;-72
2021/05/04 06:46:52;;;;;;;3.20;2.30;;;10.40;57.10;;;;;;5054509;28;20272;-73
2021/05/04 06:49:18;;;;;;;3.80;1.50;;;10.50;56.90;;;;;;5049359;28;20173;-72
2021/05/04 06:51:44;;;;;;;3.93;1.40;;;10.50;57.00;;;;;;5059915;28;20490;-72
2021/05/04 06:54:10;;;;;;;6.30;3.27;;;10.50;57.00;;;;;;5058350;28;20228;-73
2021/05/04 06:56:36;;;;;;;2.97;1.37;;;10.50;57.20;;;;;;5048363;28;20186;-73
2021/05/04 06:59:02;;;;;;;2.00;1.40;;;10.50;57.10;;;;;;5050573;28;20188;-73
2021/05/04 07:01:27;;;;;;;6.50;1.40;;;10.50;57.10;;;;;;5050766;28;20269;-73
2021/05/04 07:03:53;;;;;;;3.63;1.60;;;10.50;57.60;;;;;;5049016;28;20431;-72
2021/05/04 07:06:19;;;;;;;3.20;1.20;;;10.70;57.50;;;;;;5054539;28;20792;-73
2021/05/04 07:08:45;;;;;;;2.73;1.50;;;10.80;57.40;;;;;;5050015;28;20173;-74
2021/05/04 07:11:10;;;;;;;2.00;1.03;;;11.00;57.20;;;;;;5051796;28;20431;-73
2021/05/04 07:13:36;;;;;;;2.83;1.30;;;11.10;56.70;;;;;;5050951;28;20162;-73
2021/05/04 07:16:02;;;;;;;2.77;1.10;;;11.20;56.50;;;;;;5051164;28;20193;-73
2021/05/04 07:18:28;;;;;;;2.47;1.23;;;11.10;56.80;;;;;;5049939;28;20203;-74
2021/05/04 07:20:53;;;;;;;2.23;1.23;;;11.00;56.80;;;;;;5055619;28;20469;-73
2021/05/04 07:23:19;;;;;;;4.47;1.90;;;10.90;57.10;;;;;;5064043;28;20234;-73
2021/05/04 07:25:45;;;;;;;4.43;1.40;;;10.90;57.60;;;;;;5053335;28;20204;-72
2021/05/04 07:28:11;;;;;;;3.33;1.20;;;10.90;57.60;;;;;;5054535;28;20184;-73
2021/05/04 07:30:41;;;;;;;1.43;0.90;;;10.90;57.50;;;;;;5048993;28;20307;-74
2021/05/04 07:33:08;;;;;;;2.20;1.27;;;11.00;57.30;;;;;;5060812;28;20219;-74
2021/05/04 07:35:34;;;;;;;1.30;0.90;;;11.00;57.50;;;;;;5048950;28;20451;-73
2021/05/04 07:38:00;;;;;;;3.40;1.13;;;10.90;57.30;;;;;;5049294;28;20185;-73
2021/05/04 07:40:26;;;;;;;1.50;0.80;;;10.90;57.50;;;;;;5050107;28;20412;-72
2021/05/04 07:42:54;;;;;;;1.73;0.83;;;10.90;57.60;;;;;;5067150;28;20963;-73
2021/05/04 07:45:19;;;;;;;2.40;1.20;;;10.90;58.00;;;;;;5048750;28;20468;-73
2021/05/04 07:47:52;;;;;;;1.90;1.10;;;10.80;58.10;;;;;;5055963;28;20408;-73
2021/05/04 07:50:18;;;;;;;4.80;1.77;;;10.80;58.10;;;;;;5031891;28;20533;-73
2021/05/04 07:52:43;;;;;;;4.50;1.67;;;10.80;58.20;;;;;;5044609;28;20447;-74
2021/05/04 07:55:10;;;;;;;2.17;1.00;;;10.90;58.50;;;;;;5052872;28;20701;-73
2021/05/04 07:57:36;;;;;;;3.37;1.00;;;10.90;58.30;;;;;;5059959;28;20240;-74
2021/05/04 08:00:03;;;;;;;3.10;1.20;;;10.90;58.30;;;;;;5051363;28;20605;-73
2021/05/04 08:02:37;;;;;;;3.80;1.00;;;11.00;58.40;;;;;;5049707;28;20802;-74
2021/05/04 08:05:03;;;;;;;2.53;1.07;;;11.00;58.10;;;;;;5048831;28;20543;-74
2021/05/04 08:07:29;;;;;;;1.70;0.90;;;11.00;57.90;;;;;;5053914;28;20235;-73
2021/05/04 08:09:55;;;;;;;1.50;1.20;;;11.10;58.10;;;;;;5048584;28;20412;-73
2021/05/04 08:12:20;;;;;;;3.20;1.10;;;11.10;58.10;;;;;;5050294;28;20871;-73
2021/05/04 08:14:46;;;;;;;2.10;0.97;;;11.20;57.80;;;;;;5052038;28;20196;-74
2021/05/04 08:17:20;;;;;;;1.40;1.20;;;11.20;57.60;;;;;;5057783;28;20260;-74
2021/05/04 08:19:45;;;;;;;3.50;1.50;;;11.20;57.80;;;;;;5050632;28;20609;-74
2021/05/04 08:22:11;;;;;;;3.03;1.13;;;11.20;58.20;;;;;;5048416;28;20424;-72
2021/05/04 08:24:38;;;;;;;2.53;1.30;;;11.30;59.50;;;;;;5048740;28;20240;-73
2021/05/04 08:27:05;;;;;;;2.63;1.80;;;11.30;60.20;;;;;;5049069;28;20412;-73
2021/05/04 08:29:31;;;;;;;2.73;1.43;;;11.40;61.30;;;;;;5050989;28;20909;-73
2021/05/04 08:31:57;;;;;;;5.40;1.33;;;11.40;60.40;;;;;;5051395;28;20443;-73
2021/05/04 08:34:23;;;;;;;2.23;1.13;;;11.30;61.20;;;;;;5048803;28;20463;-73
2021/05/04 08:36:49;;;;;;;2.00;1.23;;;11.30;61.20;;;;;;5049595;28;20201;-74
2021/05/04 08:39:15;;;;;;;2.50;1.60;;;11.30;60.90;;;;;;5049659;28;20906;-72
2021/05/04 08:41:45;;;;;;;1.80;1.30;;;11.30;61.80;;;;;;5047707;28;20220;-75
2021/05/04 08:44:19;;;;;;;1.70;1.20;;;11.30;62.60;;;;;;5048551;28;20205;-74
2021/05/04 08:46:46;;;;;;;1.90;1.17;;;11.20;63.60;;;;;;5054869;28;20438;-73
2021/05/04 08:49:14;;;;;;;2.70;1.13;;;11.20;64.20;;;;;;5051665;28;20790;-74
2021/05/04 08:51:45;;;;;;;2.80;1.20;;;11.30;65.00;;;;;;5057894;28;20789;-73
2021/05/04 08:54:11;;;;;;;2.47;1.50;;;11.30;64.10;;;;;;5051279;28;20840;-74
2021/05/04 08:56:37;;;;;;;3.47;1.47;;;11.30;65.40;;;;;;5056038;28;20493;-74
2021/05/04 08:59:03;;;;;;;3.10;1.30;;;11.30;65.60;;;;;;5058463;28;20216;-73
2021/05/04 09:01:29;;;;;;;3.27;1.80;;;11.20;65.20;;;;;;5068297;28;20754;-72
2021/05/04 09:04:30;;;;;;;2.83;1.87;;;11.30;65.00;;;;;;5031490;28;20478;-73
2021/05/04 09:06:49;;;;;;;5.63;1.50;;;11.40;65.30;;;;;;5040406;28;20244;-74
2021/05/04 09:17:04;;;;;;;1.97;1.63;;;11.90;62.70;;;;;;5070417;28;20200;-73
2021/05/04 09:21:56;;;;;;;6.80;1.63;;;12.10;61.40;;;;;;5054737;28;20825;-74
2021/05/04 09:24:43;;;;;;;4.50;1.73;;;12.00;61.30;;;;;;5053529;28;20193;-73
2021/05/04 09:27:18;;;;;;;3.93;1.20;;;12.00;61.30;;;;;;5058941;28;20419;-73
2021/05/04 09:29:52;;;;;;;3.10;1.63;;;11.90;61.90;;;;;;5054146;28;20450;-74
2021/05/04 09:32:18;;;;;;;3.03;1.93;;;11.90;62.60;;;;;;5035579;28;20436;-74
2021/05/04 09:35:05;;;;;;;3.50;1.70;;;11.90;62.80;;;;;;5035422;28;20947;-74
2021/05/04 09:37:39;;;;;;;6.93;1.70;;;11.90;63.10;;;;;;5059890;28;20642;-76
2021/05/04 09:40:29;;;;;;;2.87;1.43;;;11.90;63.10;;;;;;5050720;28;20408;-77
2021/05/04 09:43:10;;;;;;;2.20;1.10;;;12.00;63.70;;;;;;5076871;28;20435;-78
2021/05/04 09:45:39;;;;;;;2.07;1.40;;;12.00;62.60;;;;;;5052214;28;20467;-75
2021/05/04 09:48:16;;;;;;;2.53;1.23;;;12.10;63.20;;;;;;5050663;28;20440;-74
2021/05/04 09:51:03;;;;;;;2.53;1.40;;;12.10;63.40;;;;;;5059391;28;20400;-75
2021/05/04 09:53:40;;;;;;;3.57;1.20;;;12.20;62.50;;;;;;5062604;28;20432;-76
2021/05/04 09:56:10;;;;;;;3.37;1.57;;;12.20;62.40;;;;;;5056628;28;20440;-78
2021/05/04 09:58:47;;;;;;;2.57;1.67;;;12.30;61.60;;;;;;5060993;28;20420;-77
2021/05/04 10:01:15;;;;;;;1.50;1.03;;;12.40;61.40;;;;;;5073326;28;20503;-78
2021/05/04 10:03:43;;;;;;;3.43;1.90;;;12.60;61.50;;;;;;5071151;28;20436;-76
2021/05/04 10:06:10;;;;;;;3.90;2.33;;;12.90;61.20;;;;;;5068783;28;20454;-76
2021/05/04 10:08:37;;;;;;;4.00;1.20;;;13.10;59.60;;;;;;5072067;28;20422;-75
2021/05/04 10:11:05;;;;;;;2.43;2.20;;;13.20;59.10;;;;;;5085550;28;20688;-76
2021/05/04 10:13:33;;;;;;;1.77;1.10;;;13.20;58.80;;;;;;5081856;28;20559;-76
2021/05/04 10:16:00;;;;;;;1.97;1.27;;;13.20;58.20;;;;;;5095961;28;20435;-77
2021/05/04 10:18:26;;;;;;;2.23;1.20;;;13.20;58.10;;;;;;5088457;28;20416;-77
2021/05/04 10:20:54;;;;;;;2.10;1.77;;;13.10;57.80;;;;;;5078340;28;20412;-77
2021/05/04 10:23:20;;;;;;;5.97;1.73;;;13.00;57.70;;;;;;5071026;28;20150;-76
2021/05/04 10:26:16;;;;;;;2.50;1.43;;;13.00;57.90;;;;;;5073232;28;20452;-79
2021/05/04 10:28:49;;;;;;;7.20;1.53;;;13.20;58.30;;;;;;5085568;28;20420;-75
2021/05/04 10:31:17;;;;;;;2.33;1.00;;;13.80;55.20;;;;;;5054559;28;20467;-74
2021/05/04 10:33:43;;;;;;;4.20;0.97;;;14.40;53.40;;;;;;5055143;28;20413;-76
2021/05/04 10:36:32;;;;;;;6.60;1.50;;;14.70;51.50;;;;;;5068671;28;20985;-76
2021/05/04 10:39:00;;;;;;;3.97;1.40;;;15.00;51.10;;;;;;5068194;28;20498;-76
2021/05/04 10:41:26;;;;;;;9.63;1.57;;;15.60;49.30;;;;;;5064929;28;20982;-75
2021/05/04 10:44:12;;;;;;;2.97;1.40;;;15.70;48.90;;;;;;5063946;28;20618;-75
2021/05/04 10:46:42;;;;;;;3.10;1.53;;;15.70;49.20;;;;;;5073622;28;20438;-75
2021/05/04 10:49:15;;;;;;;5.17;1.30;;;15.50;48.10;;;;;;5059292;28;20424;-77
2021/05/04 10:51:48;;;;;;;9.70;1.20;;;15.20;48.80;;;;;;5037240;28;20409;-78
2021/05/04 10:54:22;;;;;;;8.73;1.40;;;15.10;48.70;;;;;;5069667;28;20473;-76
2021/05/04 10:56:58;;;;;;;9.20;3.33;;;15.00;48.50;;;;;;5053835;28;20938;-78
2021/05/04 10:59:24;;;;;;;5.00;2.00;;;14.90;49.60;;;;;;5065205;28;20516;-74
2021/05/04 11:02:09;;;;;;;5.37;1.50;;;15.00;50.30;;;;;;5056286;28;20443;-77
2021/05/04 11:04:42;;;;;;;14.10;2.30;;;14.90;49.20;;;;;;5072143;28;20458;-76
2021/05/04 11:07:08;;;;;;;8.57;1.90;;;15.30;49.20;;;;;;5074409;28;20609;-77
2021/05/04 11:09:39;;;;;;;6.20;1.97;;;15.50;48.60;;;;;;5062357;28;20470;-76
2021/05/04 11:12:06;;;;;;;4.80;1.17;;;15.40;47.60;;;;;;5050680;28;20530;-75
2021/05/04 11:14:35;;;;;;;6.50;1.13;;;15.50;48.10;;;;;;5062371;28;20434;-75
2021/05/04 11:17:10;;;;;;;9.47;1.50;;;15.70;47.30;;;;;;5067902;28;20408;-75
2021/05/04 11:19:39;;;;;;;8.57;1.50;;;16.10;47.00;;;;;;5049971;28;20408;-76
2021/05/04 11:22:15;;;;;;;3.80;1.37;;;16.40;43.90;;;;;;5051682;28;20413;-75
2021/05/04 11:24:44;;;;;;;9.43;1.70;;;16.40;42.70;;;;;;5052675;28;20864;-76
2021/05/04 11:27:09;;;;;;;10.00;1.67;;;16.40;42.20;;;;;;5052820;28;20408;-75
2021/05/04 11:29:39;;;;;;;9.77;1.40;;;16.40;41.70;;;;;;5051586;28;20436;-76
2021/05/04 11:32:16;;;;;;;10.43;1.77;;;16.30;40.20;;;;;;5052797;28;20234;-76
2021/05/04 11:34:53;;;;;;;11.57;2.70;;;16.20;40.50;;;;;;5051015;28;20412;-77
2021/05/04 11:37:31;;;;;;;29.90;4.33;;;16.00;40.80;;;;;;5051785;28;20443;-78
2021/05/04 11:40:21;;;;;;;20.23;3.57;;;16.00;41.00;;;;;;5051217;28;20432;-75
2021/05/04 11:42:59;;;;;;;36.73;4.53;;;15.90;40.60;;;;;;5052329;28;20415;-76
2021/05/04 11:45:32;;;;;;;27.43;4.30;;;15.50;40.50;;;;;;5062010;28;20451;-75
2021/05/04 11:48:07;;;;;;;27.70;3.17;;;15.40;41.40;;;;;;5053753;28;20427;-84
2021/05/04 11:50:35;;;;;;;26.13;3.17;;;15.20;42.00;;;;;;5052615;28;20420;-76
2021/05/04 11:53:06;;;;;;;27.37;3.50;;;15.10;42.70;;;;;;5052209;28;20423;-77
2021/05/04 11:55:48;;;;;;;27.43;4.10;;;15.10;42.70;;;;;;5051672;28;20988;-78
2021/05/04 11:58:37;;;;;;;29.40;3.33;;;15.20;42.40;;;;;;5052605;28;20428;-76
2021/05/04 12:01:05;;;;;;;21.23;3.07;;;15.30;42.00;;;;;;5051250;28;20424;-77
2021/05/04 12:03:31;;;;;;;15.80;3.10;;;15.50;40.90;;;;;;5050624;28;20446;-77
2021/05/04 12:05:59;;;;;;;22.33;2.57;;;15.60;38.30;;;;;;5066115;28;20456;-76
2021/05/04 12:08:28;;;;;;;30.37;5.57;;;15.60;38.80;;;;;;5050552;28;20799;-77
2021/05/04 12:10:54;;;;;;;36.40;6.80;;;15.80;38.60;;;;;;5051090;28;20427;-76
2021/05/04 12:13:25;;;;;;;26.30;5.87;;;15.90;38.40;;;;;;5033687;28;20446;-76
2021/05/04 12:15:53;;;;;;;27.83;5.07;;;16.00;38.40;;;;;;5051860;28;20432;-77
2021/05/04 12:18:23;;;;;;;41.47;6.00;;;16.10;38.20;;;;;;5049956;28;20786;-77
2021/05/04 12:20:51;;;;;;;41.20;5.27;;;16.20;37.70;;;;;;5050209;28;20412;-76
2021/05/04 12:23:30;;;;;;;34.63;4.20;;;16.30;37.50;;;;;;5051188;28;20959;-78
2021/05/04 12:26:10;;;;;;;25.87;3.20;;;16.30;37.20;;;;;;5050400;28;20555;-78
2021/05/04 12:28:45;;;;;;;30.53;3.10;;;16.10;37.60;;;;;;5049906;28;20553;-78
2021/05/04 12:31:16;;;;;;;18.93;3.53;;;16.00;37.70;;;;;;5053716;28;20408;-78
2021/05/04 12:33:47;;;;;;;25.23;4.60;;;16.00;38.20;;;;;;5051489;28;20467;-76
2021/05/04 12:36:21;;;;;;;22.73;2.90;;;16.00;38.00;;;;;;5053318;28;20412;-79
2021/05/04 12:38:55;;;;;;;15.43;3.20;;;16.00;37.60;;;;;;5053286;28;20903;-76
2021/05/04 12:41:23;;;;;;;20.57;3.97;;;16.00;37.50;;;;;;5052332;28;20415;-77
2021/05/04 12:46:49;;;;;;;16.40;2.33;;;16.10;36.40;;;;;;5057376;28;20451;-77
2021/05/04 12:49:15;;;;;;;23.67;5.23;;;16.00;34.80;;;;;;5052254;28;20979;-77
2021/05/04 12:51:54;;;;;;;11.57;2.57;;;15.90;35.70;;;;;;5068578;28;20431;-79
2021/05/04 12:54:22;;;;;;;23.53;3.57;;;16.00;35.50;;;;;;5052829;28;20424;-79
2021/05/04 12:56:49;;;;;;;15.43;2.83;;;16.00;35.20;;;;;;5053884;28;20432;-79
2021/05/04 12:59:31;;;;;;;24.80;3.77;;;16.00;34.80;;;;;;5058811;28;20846;-77
2021/05/04 13:02:05;;;;;;;14.73;2.60;;;16.00;34.90;;;;;;5055987;28;20423;-77
2021/05/04 13:04:53;;;;;;;20.70;2.70;;;16.10;34.20;;;;;;5057594;28;20977;-77
2021/05/04 13:07:41;;;;;;;25.13;3.10;;;16.10;34.20;;;;;;5055516;28;20834;-77
2021/05/04 13:19:10;;;;;;;26.13;3.67;;;15.90;34.90;;;;;;5060663;28;20407;-80
2021/05/04 13:30:20;;;;;;;38.50;4.50;;;16.30;35.30;;;;;;5072628;28;20404;-81
2021/05/04 13:32:49;;;;;;;25.17;3.00;;;16.30;34.40;;;;;;5055343;28;20416;-78
2021/05/04 13:35:19;;;;;;;36.50;4.70;;;16.30;34.80;;;;;;5058921;28;20590;-79
2021/05/04 13:37:55;;;;;;;26.53;3.80;;;16.20;35.00;;;;;;5059990;28;20906;-78
2021/05/04 13:48:23;;;;;;;16.83;3.27;;;16.40;35.50;;;;;;5059159;28;20470;-79
2021/05/04 13:50:49;;;;;;;12.57;2.80;;;16.60;35.40;;;;;;5061387;28;20878;-79
2021/05/04 13:53:15;;;;;;;25.30;2.80;;;16.70;34.50;;;;;;5063272;28;20444;-79
2021/05/04 13:55:41;;;;;;;25.93;3.20;;;16.60;32.80;;;;;;5063468;28;20201;-79
2021/05/04 13:58:13;;;;;;;22.40;3.50;;;16.50;32.10;;;;;;5063112;28;20237;-81
2021/05/04 14:00:54;;;;;;;15.87;4.70;;;16.40;33.00;;;;;;5060389;28;20501;-79